Time;durP1;ratioP1;P1;durP2;ratioP2;P2;SDS_P1;SDS_P2;PMS_P1;PMS_P2;Temp;Humidity;BMP_temperature;BMP_pressure;BME280_temperature;BME280_humidity;BME280_pressure;Samples;Min_cycle;Max_cycle;Signal;HPM_P1;HPM_P2
2022/08/16 00:01:50;;;;;;;1.80;1.70;;;24.10;62.20;;;;;;5111711;28;20241;-71
2022/08/16 00:04:16;;;;;;;1.90;1.80;;;24.10;62.20;;;;;;5078525;28;20176;-71
2022/08/16 00:06:43;;;;;;;1.92;1.80;;;24.10;62.20;;;;;;5078414;28;20279;-71
2022/08/16 00:09:09;;;;;;;2.00;1.75;;;24.10;62.10;;;;;;5095039;28;20215;-71
2022/08/16 00:11:36;;;;;;;1.73;1.63;;;24.10;62.20;;;;;;5111440;28;20653;-71
2022/08/16 00:14:06;;;;;;;1.83;1.73;;;24.10;62.20;;;;;;5113218;28;20181;-71
2022/08/16 00:16:32;;;;;;;1.80;1.70;;;24.10;62.20;;;;;;5112388;28;20187;-71
2022/08/16 00:18:59;;;;;;;1.67;1.50;;;24.10;62.20;;;;;;5094766;28;20292;-70
2022/08/16 00:21:26;;;;;;;3.83;1.80;;;24.10;62.20;;;;;;5077165;28;20714;-71
2022/08/16 00:23:52;;;;;;;1.90;1.80;;;24.10;62.20;;;;;;5094868;28;20168;-71
2022/08/16 00:26:18;;;;;;;1.90;1.80;;;24.10;62.20;;;;;;5094819;28;20248;-70
2022/08/16 00:28:43;;;;;;;1.63;1.52;;;24.10;62.20;;;;;;5094670;28;20207;-71
2022/08/16 00:31:09;;;;;;;2.08;1.88;;;24.10;62.20;;;;;;5093759;28;20302;-71
2022/08/16 00:33:35;;;;;;;1.67;1.58;;;24.10;62.10;;;;;;5111920;28;20188;-71
2022/08/16 00:36:02;;;;;;;2.10;2.00;;;24.10;62.10;;;;;;5077596;28;20565;-71
2022/08/16 00:38:27;;;;;;;1.95;1.85;;;24.10;62.20;;;;;;5077845;28;20199;-71
2022/08/16 00:40:54;;;;;;;1.75;1.65;;;24.10;62.10;;;;;;5077826;28;20218;-71
2022/08/16 00:43:34;;;;;;;1.90;1.80;;;24.10;62.10;;;;;;5076370;28;20183;-71
2022/08/16 00:46:19;;;;;;;1.50;1.40;;;24.10;62.10;;;;;;5094470;28;20180;-71
2022/08/16 00:48:46;;;;;;;1.80;1.70;;;24.10;62.10;;;;;;5094337;28;20269;-71
2022/08/16 00:51:17;;;;;;;1.83;1.73;;;24.10;62.10;;;;;;5112071;28;20281;-71
2022/08/16 00:53:45;;;;;;;1.70;1.60;;;24.10;62.20;;;;;;5094511;28;20270;-71
2022/08/16 00:56:17;;;;;;;2.90;1.85;;;24.10;62.20;;;;;;5094285;28;20184;-71
2022/08/16 00:58:47;;;;;;;1.88;1.77;;;24.00;62.00;;;;;;5094114;28;20341;-71
2022/08/16 01:01:15;;;;;;;1.70;1.60;;;24.10;62.20;;;;;;5093944;28;20191;-71
2022/08/16 01:03:47;;;;;;;1.80;1.70;;;24.00;62.00;;;;;;5094118;28;20184;-71
2022/08/16 01:06:17;;;;;;;1.60;1.50;;;24.00;62.00;;;;;;5094217;28;20186;-71
2022/08/16 01:08:47;;;;;;;1.67;1.58;;;24.00;62.00;;;;;;5094285;28;20239;-71
2022/08/16 01:11:13;;;;;;;2.05;1.95;;;24.00;62.10;;;;;;5076708;28;20262;-71
2022/08/16 01:13:40;;;;;;;1.80;1.70;;;24.00;62.00;;;;;;5094350;28;20289;-71
2022/08/16 01:16:21;;;;;;;1.70;1.60;;;24.10;62.20;;;;;;5094318;28;20209;-71
2022/08/16 01:19:10;;;;;;;1.83;1.73;;;24.10;62.20;;;;;;5077117;28;20231;-71
2022/08/16 01:21:59;;;;;;;2.17;1.80;;;24.00;62.00;;;;;;5093518;28;20180;-71
2022/08/16 01:24:42;;;;;;;1.75;1.65;;;24.00;62.00;;;;;;5094052;28;20551;-70
2022/08/16 01:27:15;;;;;;;1.85;1.70;;;24.00;62.10;;;;;;5093843;28;20180;-71
2022/08/16 01:29:53;;;;;;;1.90;1.80;;;24.00;62.10;;;;;;5116431;28;20552;-71
2022/08/16 01:32:19;;;;;;;1.75;1.65;;;24.00;62.00;;;;;;5114516;28;20189;-71
2022/08/16 01:34:45;;;;;;;1.95;1.63;;;24.00;62.00;;;;;;5098333;28;20259;-71
2022/08/16 01:37:13;;;;;;;1.90;1.80;;;24.00;62.10;;;;;;5093522;28;20275;-71
2022/08/16 01:39:41;;;;;;;1.85;1.75;;;24.00;62.10;;;;;;5091938;28;20211;-71
2022/08/16 01:42:09;;;;;;;2.58;1.98;;;24.00;62.10;;;;;;5105235;28;20173;-70
2022/08/16 01:44:37;;;;;;;1.65;1.55;;;24.00;62.20;;;;;;5060970;28;20180;-71
2022/08/16 01:47:04;;;;;;;1.60;1.50;;;24.00;62.10;;;;;;5077462;28;20187;-71
2022/08/16 01:49:36;;;;;;;1.80;1.70;;;24.00;62.10;;;;;;5077511;28;20265;-70
2022/08/16 01:52:08;;;;;;;1.67;1.58;;;24.00;62.20;;;;;;5095393;28;20180;-71
2022/08/16 01:54:47;;;;;;;2.17;1.80;;;24.00;62.20;;;;;;5077275;28;20195;-71
2022/08/16 01:57:13;;;;;;;1.67;1.58;;;24.00;64.90;;;;;;5077179;28;20276;-71
2022/08/16 01:59:40;;;;;;;1.80;1.70;;;24.00;64.00;;;;;;5060713;28;20684;-71
2022/08/16 02:02:08;;;;;;;1.85;1.75;;;24.00;62.90;;;;;;5076826;28;20173;-71
2022/08/16 02:04:35;;;;;;;1.85;1.60;;;24.00;65.90;;;;;;5060909;28;20177;-71
2022/08/16 02:07:07;;;;;;;2.13;1.88;;;24.00;65.30;;;;;;5077059;28;20180;-71
2022/08/16 02:09:36;;;;;;;1.90;1.80;;;24.00;67.00;;;;;;5060545;28;20735;-71
2022/08/16 02:12:05;;;;;;;1.73;1.63;;;24.00;65.60;;;;;;5076457;28;20185;-71
2022/08/16 02:14:34;;;;;;;1.42;1.40;;;24.00;74.20;;;;;;5077193;28;20189;-71
2022/08/16 02:17:05;;;;;;;1.63;1.52;;;24.00;75.30;;;;;;5060373;28;20253;-71
2022/08/16 02:19:34;;;;;;;2.05;1.95;;;23.90;62.50;;;;;;5077129;28;20219;-71
2022/08/16 02:22:03;;;;;;;1.70;1.60;;;24.00;65.60;;;;;;5094687;28;20177;-70
2022/08/16 02:24:29;;;;;;;1.80;1.70;;;24.00;65.10;;;;;;5078047;28;20291;-71
2022/08/16 02:26:55;;;;;;;1.70;1.60;;;23.90;65.10;;;;;;5088043;28;20236;-71
2022/08/16 02:29:22;;;;;;;1.35;1.25;;;23.90;62.00;;;;;;5093769;28;20231;-71
2022/08/16 02:31:50;;;;;;;1.40;1.30;;;23.90;62.00;;;;;;5093023;28;20209;-71
2022/08/16 02:34:19;;;;;;;1.67;1.55;;;23.90;62.20;;;;;;5093496;28;20298;-71
2022/08/16 02:36:46;;;;;;;1.83;1.73;;;23.90;62.50;;;;;;5093736;28;20651;-71
2022/08/16 02:39:16;;;;;;;1.70;1.60;;;23.90;62.80;;;;;;5059438;28;20255;-71
2022/08/16 02:41:49;;;;;;;1.80;1.70;;;23.90;62.00;;;;;;5092943;28;20216;-71
2022/08/16 02:44:15;;;;;;;1.60;1.50;;;23.90;65.40;;;;;;5076732;28;20195;-71
2022/08/16 02:46:45;;;;;;;1.77;1.67;;;24.00;64.80;;;;;;5093417;28;20181;-71
2022/08/16 02:49:12;;;;;;;2.55;1.70;;;23.90;65.10;;;;;;5093244;28;20303;-71
2022/08/16 02:51:40;;;;;;;1.80;1.70;;;23.90;67.10;;;;;;5092658;28;20177;-71
2022/08/16 02:54:08;;;;;;;1.83;1.73;;;23.90;68.10;;;;;;5066719;28;20188;-71
2022/08/16 02:56:35;;;;;;;1.55;1.45;;;23.90;67.40;;;;;;5096753;28;20168;-71
2022/08/16 02:59:01;;;;;;;1.77;1.67;;;23.90;69.50;;;;;;5079613;28;20210;-71
2022/08/16 03:01:31;;;;;;;1.80;1.70;;;23.90;64.90;;;;;;5095986;28;20271;-71
2022/08/16 03:03:59;;;;;;;1.42;1.33;;;23.90;67.60;;;;;;5096491;28;20180;-71
2022/08/16 03:06:27;;;;;;;1.83;1.50;;;23.90;70.70;;;;;;5079670;28;20184;-71
2022/08/16 03:08:58;;;;;;;2.17;1.65;;;23.90;68.80;;;;;;5113330;28;20212;-71
2022/08/16 03:11:25;;;;;;;2.08;1.90;;;23.90;72.20;;;;;;5112852;28;20187;-71
2022/08/16 03:13:53;;;;;;;1.70;1.60;;;23.90;67.70;;;;;;5114503;28;20177;-71
2022/08/16 03:16:22;;;;;;;1.88;1.77;;;23.90;66.60;;;;;;5079046;28;20183;-71
2022/08/16 03:18:49;;;;;;;2.92;1.65;;;23.90;68.20;;;;;;5096318;28;20706;-71
2022/08/16 03:21:17;;;;;;;1.92;1.83;;;23.90;67.10;;;;;;5095550;28;20759;-71
2022/08/16 03:23:43;;;;;;;1.77;1.67;;;23.90;67.40;;;;;;5095898;28;20211;-71
2022/08/16 03:26:12;;;;;;;1.75;1.65;;;23.90;69.20;;;;;;5095894;28;20184;-71
2022/08/16 03:28:40;;;;;;;1.92;1.83;;;23.90;62.90;;;;;;5114164;28;20239;-71
2022/08/16 03:31:07;;;;;;;2.25;1.77;;;23.90;62.50;;;;;;5095825;28;20176;-71
2022/08/16 03:33:35;;;;;;;2.08;1.90;;;23.90;64.80;;;;;;5112185;28;20210;-71
2022/08/16 03:36:02;;;;;;;1.70;1.60;;;23.90;62.00;;;;;;5095940;28;20180;-71
2022/08/16 03:38:34;;;;;;;1.80;1.70;;;23.90;62.00;;;;;;5095786;28;20207;-71
2022/08/16 03:41:05;;;;;;;1.85;1.75;;;23.90;62.00;;;;;;5095654;28;20725;-70
2022/08/16 03:43:32;;;;;;;1.80;1.70;;;23.90;61.90;;;;;;5112169;28;20647;-71
2022/08/16 03:45:59;;;;;;;1.92;1.83;;;23.90;61.90;;;;;;5095951;28;20221;-70
2022/08/16 03:48:35;;;;;;;1.60;1.50;;;23.90;61.90;;;;;;5095002;28;20220;-71
2022/08/16 03:51:07;;;;;;;1.70;1.60;;;23.90;61.90;;;;;;5094840;28;20179;-70
2022/08/16 03:53:38;;;;;;;1.58;1.48;;;23.80;61.70;;;;;;5094622;28;20187;-71
2022/08/16 03:56:06;;;;;;;1.75;1.65;;;23.90;61.90;;;;;;5095339;28;20188;-71
2022/08/16 03:58:34;;;;;;;2.03;1.75;;;23.90;62.00;;;;;;5078558;28;20232;-71
2022/08/16 04:01:01;;;;;;;1.58;1.48;;;23.80;61.80;;;;;;5095204;28;20242;-71
2022/08/16 04:03:27;;;;;;;1.67;1.58;;;23.90;62.00;;;;;;5094791;28;20184;-71
2022/08/16 04:05:53;;;;;;;1.88;1.77;;;23.90;62.00;;;;;;5078337;28;20180;-71
2022/08/16 04:08:20;;;;;;;1.80;1.70;;;23.90;61.90;;;;;;5078090;28;20206;-71
2022/08/16 04:10:54;;;;;;;1.77;1.67;;;23.80;61.80;;;;;;5095461;28;20188;-71
2022/08/16 04:13:21;;;;;;;1.73;1.63;;;23.80;61.80;;;;;;5094620;28;20179;-71
2022/08/16 04:15:47;;;;;;;1.65;1.55;;;23.90;62.00;;;;;;5095202;28;20186;-71
2022/08/16 04:18:20;;;;;;;1.73;1.63;;;23.90;62.00;;;;;;5079175;28;20226;-71
2022/08/16 04:20:46;;;;;;;1.65;1.55;;;23.90;61.90;;;;;;5077835;28;20208;-71
2022/08/16 04:23:13;;;;;;;1.52;1.42;;;23.80;61.70;;;;;;5077509;28;20187;-71
2022/08/16 04:25:41;;;;;;;1.70;1.60;;;23.90;61.90;;;;;;5111497;28;20667;-71
2022/08/16 04:28:10;;;;;;;1.60;1.50;;;23.80;61.70;;;;;;5094616;28;20200;-71
2022/08/16 04:30:36;;;;;;;1.63;1.52;;;23.80;61.70;;;;;;5094979;28;20207;-70
2022/08/16 04:33:03;;;;;;;1.83;1.65;;;23.80;61.80;;;;;;5094122;28;20214;-71
2022/08/16 04:35:31;;;;;;;1.80;1.70;;;23.80;61.80;;;;;;5111581;28;20183;-71
2022/08/16 04:37:57;;;;;;;1.70;1.60;;;23.80;61.80;;;;;;5111465;28;20207;-71
2022/08/16 04:40:28;;;;;;;2.53;2.03;;;23.80;61.80;;;;;;5111425;28;20220;-71
2022/08/16 04:42:59;;;;;;;2.28;1.63;;;23.80;61.70;;;;;;5111124;28;20203;-71
2022/08/16 04:45:27;;;;;;;1.80;1.70;;;23.80;61.80;;;;;;5111468;28;20190;-71
2022/08/16 04:47:52;;;;;;;1.45;1.30;;;23.80;61.80;;;;;;5094347;28;20204;-71
2022/08/16 04:50:23;;;;;;;2.38;1.80;;;23.80;61.80;;;;;;5094709;28;20195;-71
2022/08/16 04:52:57;;;;;;;1.60;1.50;;;23.80;61.80;;;;;;5106229;28;20173;-70
2022/08/16 04:55:28;;;;;;;1.80;1.70;;;23.80;61.80;;;;;;5057686;28;20181;-70
2022/08/16 04:57:55;;;;;;;1.58;1.48;;;23.80;61.70;;;;;;5092196;28;20204;-71
2022/08/16 05:00:26;;;;;;;1.73;1.63;;;23.80;61.80;;;;;;5057338;28;20212;-70
2022/08/16 05:02:54;;;;;;;2.05;1.70;;;23.80;61.70;;;;;;5056524;28;20189;-71
2022/08/16 05:05:22;;;;;;;1.70;1.60;;;23.80;61.70;;;;;;5057335;28;20739;-71
2022/08/16 05:07:49;;;;;;;1.70;1.60;;;23.80;61.80;;;;;;5073661;28;20197;-71
2022/08/16 05:10:16;;;;;;;1.55;1.45;;;23.80;61.70;;;;;;5073936;28;20181;-71
2022/08/16 05:12:43;;;;;;;1.50;1.40;;;23.80;61.80;;;;;;5073407;28;20572;-71
2022/08/16 05:15:09;;;;;;;1.85;1.75;;;23.80;61.80;;;;;;5073978;28;20191;-71
2022/08/16 05:17:38;;;;;;;1.60;1.50;;;23.80;61.80;;;;;;5073885;28;20246;-71
2022/08/16 05:20:10;;;;;;;1.80;1.70;;;23.80;61.80;;;;;;5073996;28;20274;-71
2022/08/16 05:22:41;;;;;;;2.00;1.90;;;23.80;61.80;;;;;;5057049;28;20182;-71
2022/08/16 05:25:09;;;;;;;1.80;1.70;;;23.80;61.90;;;;;;5073924;28;20200;-71
2022/08/16 05:27:42;;;;;;;2.05;1.60;;;23.80;61.80;;;;;;5057663;28;20232;-71
2022/08/16 05:30:12;;;;;;;1.55;1.45;;;23.80;61.90;;;;;;5074020;28;20184;-71
2022/08/16 05:32:41;;;;;;;1.60;1.50;;;23.80;61.80;;;;;;5056799;28;20197;-71
2022/08/16 05:35:11;;;;;;;1.77;1.67;;;23.80;61.90;;;;;;5073871;28;20272;-71
2022/08/16 05:37:40;;;;;;;1.90;1.80;;;23.80;61.80;;;;;;5073522;28;20200;-71
2022/08/16 05:40:11;;;;;;;1.90;1.80;;;23.80;61.90;;;;;;5057264;28;20305;-71
2022/08/16 05:42:38;;;;;;;1.88;1.73;;;23.80;61.90;;;;;;5056677;28;20222;-71
2022/08/16 05:45:06;;;;;;;1.50;1.40;;;23.80;61.90;;;;;;5073698;28;20197;-71
2022/08/16 05:47:32;;;;;;;1.75;1.65;;;23.80;61.90;;;;;;5073511;28;20199;-71
2022/08/16 05:49:58;;;;;;;1.90;1.80;;;23.80;61.90;;;;;;5093873;28;20192;-71
2022/08/16 05:52:24;;;;;;;1.65;1.55;;;23.80;62.00;;;;;;5093310;28;20187;-71
2022/08/16 05:54:49;;;;;;;1.80;1.70;;;23.80;62.00;;;;;;5111022;28;20251;-71
2022/08/16 05:57:18;;;;;;;1.77;1.67;;;23.80;62.00;;;;;;5077183;28;20184;-71
2022/08/16 05:59:48;;;;;;;1.55;1.45;;;23.80;62.00;;;;;;5093882;28;20204;-71
2022/08/16 06:02:15;;;;;;;1.55;1.45;;;23.80;62.00;;;;;;5110180;28;20191;-71
2022/08/16 06:04:44;;;;;;;2.20;1.70;;;23.80;62.00;;;;;;5093581;28;20172;-70
2022/08/16 06:07:14;;;;;;;1.70;1.60;;;23.80;62.00;;;;;;5110700;28;20187;-71
2022/08/16 06:09:45;;;;;;;1.88;1.70;;;23.80;62.10;;;;;;5093739;28;20215;-71
2022/08/16 06:12:15;;;;;;;1.70;1.60;;;23.80;62.10;;;;;;5093552;28;20234;-71
2022/08/16 06:14:41;;;;;;;1.83;1.73;;;23.80;62.10;;;;;;5111448;28;20192;-71
2022/08/16 06:17:07;;;;;;;1.92;1.80;;;23.80;62.30;;;;;;5079906;28;20180;-71
2022/08/16 06:19:33;;;;;;;1.60;1.50;;;23.80;62.20;;;;;;5114390;28;20215;-71
2022/08/16 06:22:06;;;;;;;1.67;1.58;;;23.80;62.30;;;;;;5080722;28;20191;-70
2022/08/16 06:24:34;;;;;;;1.63;1.52;;;23.80;62.20;;;;;;5114177;28;20659;-71
2022/08/16 06:27:00;;;;;;;1.75;1.65;;;23.80;62.30;;;;;;5080428;28;20180;-71
2022/08/16 06:29:31;;;;;;;1.77;1.67;;;23.80;62.30;;;;;;5113482;28;20257;-71
2022/08/16 06:31:57;;;;;;;1.63;1.52;;;23.80;62.30;;;;;;5079634;28;20184;-71
2022/08/16 06:34:25;;;;;;;1.98;1.88;;;23.70;62.20;;;;;;5096962;28;20280;-71
2022/08/16 06:36:53;;;;;;;2.20;2.05;;;23.80;62.40;;;;;;5097046;28;20227;-71
2022/08/16 06:39:21;;;;;;;1.63;1.52;;;23.80;62.40;;;;;;5097122;28;20216;-71
2022/08/16 06:42:04;;;;;;;1.80;1.70;;;23.80;62.50;;;;;;5113284;28;20655;-71
2022/08/16 06:44:59;;;;;;;1.90;1.80;;;23.70;62.40;;;;;;5100861;28;20192;-71
2022/08/16 06:47:36;;;;;;;2.28;1.90;;;23.80;62.50;;;;;;5096731;28;20200;-71
2022/08/16 06:50:03;;;;;;;2.10;2.00;;;23.80;62.50;;;;;;5096592;28;20175;-71
2022/08/16 06:52:37;;;;;;;1.63;1.52;;;23.80;62.60;;;;;;5096183;28;20191;-71
2022/08/16 06:55:07;;;;;;;1.67;1.58;;;23.80;62.60;;;;;;5079923;28;20188;-70
2022/08/16 06:57:34;;;;;;;1.85;1.75;;;23.80;62.60;;;;;;5096444;28;20207;-71
2022/08/16 06:59:59;;;;;;;1.75;1.65;;;23.80;62.70;;;;;;5096385;28;20216;-71
2022/08/16 07:02:35;;;;;;;2.08;1.88;;;23.80;62.70;;;;;;5080366;28;20189;-71
2022/08/16 07:05:05;;;;;;;1.80;1.70;;;23.80;62.70;;;;;;5096370;28;20190;-71
2022/08/16 07:07:33;;;;;;;1.80;1.70;;;23.70;62.60;;;;;;5079228;28;20587;-71
2022/08/16 07:09:59;;;;;;;2.00;1.60;;;23.80;62.70;;;;;;5113597;28;20597;-71
2022/08/16 07:12:24;;;;;;;1.67;1.58;;;23.80;62.80;;;;;;5095635;28;20233;-71
2022/08/16 07:14:50;;;;;;;2.08;1.98;;;23.80;62.80;;;;;;5079555;28;20237;-71
2022/08/16 07:17:20;;;;;;;2.00;1.90;;;23.80;62.90;;;;;;5079396;28;20181;-71
2022/08/16 07:19:53;;;;;;;1.80;1.70;;;23.70;62.80;;;;;;5096801;28;20215;-71
2022/08/16 07:22:23;;;;;;;1.90;1.80;;;23.80;62.80;;;;;;5095500;28;20183;-71
2022/08/16 07:24:50;;;;;;;2.03;1.92;;;23.80;62.90;;;;;;5095976;28;20184;-71
2022/08/16 07:27:16;;;;;;;1.83;1.73;;;23.80;62.90;;;;;;5095749;28;20176;-71
2022/08/16 07:29:42;;;;;;;1.75;1.63;;;23.80;62.80;;;;;;5113011;28;20183;-71
2022/08/16 07:32:09;;;;;;;1.95;1.85;;;23.80;62.80;;;;;;5078618;28;20200;-70
2022/08/16 07:34:35;;;;;;;2.00;1.90;;;23.80;62.80;;;;;;5095692;28;20194;-71
2022/08/16 07:37:08;;;;;;;2.35;1.90;;;23.80;62.80;;;;;;5095761;28;20230;-71
2022/08/16 07:39:52;;;;;;;1.73;1.63;;;23.80;63.00;;;;;;5095862;28;20213;-71
2022/08/16 07:42:19;;;;;;;1.83;1.73;;;23.80;62.90;;;;;;5112108;28;20180;-71
2022/08/16 07:44:45;;;;;;;1.70;1.60;;;23.80;62.80;;;;;;5095665;28;20206;-71
2022/08/16 07:47:11;;;;;;;1.90;1.80;;;23.80;62.80;;;;;;5095378;28;20186;-71
2022/08/16 07:49:37;;;;;;;1.92;1.83;;;23.80;62.80;;;;;;5095143;28;20229;-71
2022/08/16 07:52:05;;;;;;;2.10;1.90;;;23.80;62.80;;;;;;5095097;28;20391;-71
2022/08/16 07:54:32;;;;;;;2.13;2.00;;;23.80;62.80;;;;;;5095484;28;20179;-71
2022/08/16 07:56:59;;;;;;;2.38;2.17;;;23.80;62.80;;;;;;5095331;28;20184;-71
2022/08/16 07:59:26;;;;;;;2.65;2.45;;;23.80;62.90;;;;;;5095063;28;20243;-71
2022/08/16 08:01:54;;;;;;;2.30;2.20;;;23.80;62.80;;;;;;5111813;28;20207;-71
2022/08/16 08:04:22;;;;;;;2.38;2.28;;;23.90;62.70;;;;;;5095178;28;20225;-71
2022/08/16 08:06:50;;;;;;;2.13;2.03;;;23.90;62.60;;;;;;5095124;28;20188;-71
2022/08/16 08:09:16;;;;;;;2.20;2.10;;;23.90;62.60;;;;;;5095111;28;20238;-71
2022/08/16 08:11:44;;;;;;;2.40;2.22;;;24.00;62.70;;;;;;5078113;28;20176;-71
2022/08/16 08:14:11;;;;;;;2.40;2.20;;;24.00;62.60;;;;;;5077657;28;20168;-71
2022/08/16 08:16:44;;;;;;;2.20;2.00;;;24.00;62.60;;;;;;5095302;28;20558;-71
2022/08/16 08:19:14;;;;;;;2.20;2.10;;;24.00;63.30;;;;;;5094869;28;20200;-71
2022/08/16 08:21:42;;;;;;;2.50;2.30;;;24.00;62.60;;;;;;5078557;28;20183;-71
2022/08/16 08:24:11;;;;;;;2.45;2.30;;;24.00;62.50;;;;;;5111402;28;20207;-70
2022/08/16 08:26:40;;;;;;;2.50;2.30;;;24.10;62.70;;;;;;5111819;28;20180;-71
2022/08/16 08:29:06;;;;;;;2.38;2.20;;;24.00;62.50;;;;;;5095032;28;20207;-71
2022/08/16 08:31:35;;;;;;;2.03;1.92;;;24.00;62.50;;;;;;5095162;28;20180;-71
2022/08/16 08:34:03;;;;;;;1.77;1.67;;;24.00;62.60;;;;;;5094151;28;20191;-71
2022/08/16 08:36:32;;;;;;;2.03;1.92;;;24.00;62.60;;;;;;5094047;28;20260;-71
2022/08/16 08:39:03;;;;;;;2.10;2.00;;;24.00;63.70;;;;;;5077354;28;20248;-71
2022/08/16 08:41:28;;;;;;;2.30;2.20;;;24.00;65.30;;;;;;5111833;28;20192;-70
2022/08/16 08:43:57;;;;;;;2.35;2.22;;;24.00;71.00;;;;;;5094103;28;20176;-71
2022/08/16 08:46:25;;;;;;;2.45;2.30;;;24.10;62.20;;;;;;5077836;28;20180;-70
2022/08/16 08:48:53;;;;;;;2.25;2.15;;;24.10;67.90;;;;;;5094335;28;20196;-71
2022/08/16 08:51:20;;;;;;;2.00;1.90;;;24.10;68.60;;;;;;5077716;28;20180;-71
2022/08/16 08:53:51;;;;;;;2.30;2.20;;;24.10;70.60;;;;;;5110805;28;20279;-71
2022/08/16 08:56:18;;;;;;;2.58;2.40;;;24.10;70.40;;;;;;5094032;28;20187;-71
2022/08/16 08:58:44;;;;;;;2.22;2.08;;;24.10;69.40;;;;;;5094391;28;20280;-71
2022/08/16 09:01:27;;;;;;;2.22;2.03;;;24.10;69.00;;;;;;5078629;28;20223;-71
2022/08/16 09:03:54;;;;;;;2.15;2.00;;;24.10;70.80;;;;;;5093622;28;20172;-71
2022/08/16 09:06:20;;;;;;;2.40;2.03;;;24.20;67.50;;;;;;5094182;28;20188;-71
2022/08/16 09:08:46;;;;;;;2.20;2.10;;;24.20;70.70;;;;;;5112372;28;20687;-71
2022/08/16 09:11:12;;;;;;;2.55;2.35;;;24.10;69.80;;;;;;5094333;28;20267;-71
2022/08/16 09:13:39;;;;;;;2.70;2.50;;;24.10;68.40;;;;;;5076936;28;20206;-70
2022/08/16 09:16:06;;;;;;;2.25;2.05;;;24.20;71.60;;;;;;5077247;28;20176;-71
2022/08/16 09:18:34;;;;;;;2.00;1.90;;;24.20;69.70;;;;;;5077706;28;20237;-71
2022/08/16 09:21:00;;;;;;;1.98;1.88;;;24.20;69.00;;;;;;5077176;28;20216;-71
2022/08/16 09:23:30;;;;;;;2.28;2.17;;;24.10;70.80;;;;;;5093664;28;20206;-71
2022/08/16 09:25:56;;;;;;;2.40;2.20;;;24.20;64.00;;;;;;5093999;28;20180;-71
2022/08/16 09:28:23;;;;;;;2.10;2.00;;;24.20;67.00;;;;;;5094190;28;20192;-71
2022/08/16 09:31:05;;;;;;;2.63;2.45;;;24.20;69.30;;;;;;5101124;28;20651;-71
2022/08/16 09:33:30;;;;;;;2.30;2.20;;;24.20;69.00;;;;;;5060503;28;20200;-70
2022/08/16 09:35:56;;;;;;;2.53;2.25;;;24.20;67.80;;;;;;5073895;28;20192;-71
2022/08/16 09:38:24;;;;;;;2.50;2.30;;;24.20;67.00;;;;;;5091803;28;20203;-71
2022/08/16 09:40:50;;;;;;;2.40;2.20;;;24.20;67.10;;;;;;5073934;28;20212;-71
2022/08/16 09:43:19;;;;;;;2.67;2.47;;;24.30;65.20;;;;;;5091201;28;20177;-71
2022/08/16 09:45:46;;;;;;;2.45;2.28;;;24.30;63.90;;;;;;5073503;28;20238;-71
2022/08/16 09:48:13;;;;;;;2.13;2.03;;;24.20;64.10;;;;;;5091424;28;20193;-71
2022/08/16 09:50:42;;;;;;;2.38;2.28;;;24.30;63.70;;;;;;5077487;28;20188;-71
2022/08/16 09:53:18;;;;;;;3.28;2.20;;;24.30;64.90;;;;;;5094005;28;20187;-71
2022/08/16 09:55:49;;;;;;;1.80;1.70;;;24.30;63.40;;;;;;5064191;28;20188;-71
2022/08/16 09:58:15;;;;;;;2.28;2.17;;;24.30;62.90;;;;;;5095576;28;20200;-71
2022/08/16 10:00:40;;;;;;;2.53;2.30;;;24.30;62.80;;;;;;5077253;28;20212;-71
2022/08/16 10:03:06;;;;;;;2.50;2.03;;;24.30;62.70;;;;;;5076859;28;20192;-71
2022/08/16 10:05:36;;;;;;;2.42;2.30;;;24.30;62.70;;;;;;5095573;28;20735;-71
2022/08/16 10:08:04;;;;;;;2.75;2.47;;;24.30;62.70;;;;;;5077294;28;20212;-70
2022/08/16 10:10:31;;;;;;;3.15;2.72;;;24.30;62.70;;;;;;5094090;28;20241;-71
2022/08/16 10:13:13;;;;;;;2.50;2.30;;;24.30;62.70;;;;;;5084764;28;20189;-71
2022/08/16 10:15:45;;;;;;;2.67;2.47;;;24.30;62.70;;;;;;5097476;28;20195;-70
2022/08/16 10:18:13;;;;;;;2.25;2.10;;;24.30;62.70;;;;;;5097411;28;20211;-71
2022/08/16 10:20:44;;;;;;;2.70;2.50;;;24.30;62.80;;;;;;5097309;28;20208;-71
2022/08/16 10:23:13;;;;;;;2.35;2.15;;;24.30;62.80;;;;;;5114914;28;20196;-71
2022/08/16 10:25:43;;;;;;;2.40;2.20;;;24.30;62.70;;;;;;5097235;28;20180;-71
2022/08/16 10:28:10;;;;;;;2.40;2.30;;;24.30;62.70;;;;;;5115360;28;20277;-71
2022/08/16 10:30:37;;;;;;;2.50;2.30;;;24.30;62.80;;;;;;5114276;28;20180;-71
2022/08/16 10:33:04;;;;;;;2.28;2.17;;;24.40;62.90;;;;;;5114811;28;20309;-70
2022/08/16 10:35:31;;;;;;;2.47;2.28;;;24.40;62.80;;;;;;5097019;28;20280;-71
2022/08/16 10:37:56;;;;;;;3.47;2.70;;;24.30;62.70;;;;;;5115126;28;20206;-71
2022/08/16 10:40:23;;;;;;;2.80;2.60;;;24.30;62.70;;;;;;5115164;28;20208;-71
2022/08/16 10:42:50;;;;;;;2.42;2.22;;;24.40;62.80;;;;;;5096432;28;20229;-71
2022/08/16 10:45:17;;;;;;;2.72;2.53;;;24.30;62.70;;;;;;5114666;28;20180;-71
2022/08/16 10:47:44;;;;;;;2.80;2.60;;;24.40;62.80;;;;;;5096661;28;20587;-71
2022/08/16 10:50:10;;;;;;;2.30;2.20;;;24.40;62.90;;;;;;5096816;28;20244;-71
2022/08/16 10:52:36;;;;;;;2.55;2.35;;;24.40;62.80;;;;;;5114246;28;20188;-71
2022/08/16 10:55:05;;;;;;;2.47;2.28;;;24.40;62.80;;;;;;5096717;28;20194;-71
2022/08/16 10:57:31;;;;;;;2.42;2.28;;;24.30;62.80;;;;;;5114692;28;20309;-71
2022/08/16 10:59:57;;;;;;;2.75;2.55;;;24.30;62.80;;;;;;5096356;28;20204;-71
2022/08/16 11:02:24;;;;;;;2.55;2.35;;;24.40;62.90;;;;;;5078634;28;20182;-71
2022/08/16 11:04:51;;;;;;;2.72;2.53;;;24.40;62.90;;;;;;5096511;28;20184;-71
2022/08/16 11:07:17;;;;;;;2.10;2.00;;;24.40;63.00;;;;;;5114391;28;20263;-71
2022/08/16 11:09:43;;;;;;;2.38;2.17;;;24.40;62.90;;;;;;5114848;28;20188;-71
2022/08/16 11:12:09;;;;;;;2.10;2.00;;;24.40;63.00;;;;;;5095780;28;20180;-71
2022/08/16 11:14:35;;;;;;;2.50;2.33;;;24.40;63.00;;;;;;5114516;28;20215;-71
2022/08/16 11:17:04;;;;;;;2.65;2.28;;;24.40;63.00;;;;;;5114554;28;20192;-71
2022/08/16 11:19:32;;;;;;;2.38;2.28;;;24.40;63.00;;;;;;5096174;28;20212;-71
2022/08/16 11:21:59;;;;;;;2.65;2.45;;;24.40;63.00;;;;;;5096031;28;20546;-71
2022/08/16 11:24:27;;;;;;;2.90;2.70;;;24.40;63.00;;;;;;5095596;28;20270;-71
2022/08/16 11:26:53;;;;;;;2.78;2.58;;;24.40;62.90;;;;;;5079296;28;20541;-71
2022/08/16 11:29:19;;;;;;;2.13;2.00;;;24.40;62.90;;;;;;5095909;28;20196;-71
2022/08/16 11:31:46;;;;;;;2.33;2.22;;;24.40;62.90;;;;;;5114234;28;20309;-70
2022/08/16 11:34:13;;;;;;;2.60;2.40;;;24.40;62.90;;;;;;5078374;28;20184;-71
2022/08/16 11:36:39;;;;;;;2.97;2.78;;;24.40;63.00;;;;;;5078843;28;20176;-71
2022/08/16 11:39:05;;;;;;;2.58;2.38;;;24.40;62.90;;;;;;5113924;28;20278;-70
2022/08/16 11:41:34;;;;;;;2.67;2.47;;;24.40;63.00;;;;;;5095694;28;20223;-71
2022/08/16 11:44:00;;;;;;;2.65;2.45;;;24.40;63.00;;;;;;5095187;28;20176;-71
2022/08/16 11:46:27;;;;;;;2.22;2.13;;;24.40;63.00;;;;;;5095610;28;20176;-70
2022/08/16 11:48:53;;;;;;;2.38;2.22;;;24.40;63.00;;;;;;5113596;28;20196;-71
2022/08/16 11:51:19;;;;;;;2.72;2.53;;;24.40;63.00;;;;;;5113494;28;20212;-71
2022/08/16 11:53:45;;;;;;;2.63;2.42;;;24.40;63.00;;;;;;5095027;28;20203;-71
2022/08/16 11:56:11;;;;;;;2.45;2.28;;;24.40;63.00;;;;;;5095677;28;20260;-71
2022/08/16 11:58:38;;;;;;;2.08;1.98;;;24.40;62.90;;;;;;5078434;28;20204;-71
2022/08/16 12:01:05;;;;;;;2.40;2.30;;;24.30;62.90;;;;;;5095473;28;20220;-71
2022/08/16 12:03:32;;;;;;;2.83;2.63;;;24.40;62.90;;;;;;5077678;28;20207;-71
2022/08/16 12:06:02;;;;;;;2.55;2.35;;;24.40;62.90;;;;;;5095481;28;20186;-71
2022/08/16 12:08:30;;;;;;;2.28;2.17;;;24.40;63.00;;;;;;5095051;28;20208;-71
2022/08/16 12:10:55;;;;;;;2.60;2.40;;;24.40;62.90;;;;;;5095344;28;20176;-71
2022/08/16 12:13:21;;;;;;;2.55;2.10;;;24.40;62.90;;;;;;5110792;28;20195;-71
2022/08/16 12:15:47;;;;;;;2.33;2.22;;;24.40;63.00;;;;;;5094944;28;20184;-71
2022/08/16 12:18:13;;;;;;;3.60;2.65;;;24.40;62.90;;;;;;5094977;28;20762;-71
2022/08/16 12:20:43;;;;;;;2.95;2.65;;;24.40;62.90;;;;;;5094624;28;20208;-71
2022/08/16 12:23:10;;;;;;;2.75;2.53;;;24.40;62.90;;;;;;5074119;28;20569;-71
2022/08/16 12:25:36;;;;;;;2.53;2.40;;;24.40;62.90;;;;;;5092820;28;20176;-71
2022/08/16 12:28:06;;;;;;;2.97;2.60;;;24.40;62.80;;;;;;5074605;28;20209;-71
2022/08/16 12:30:37;;;;;;;3.35;2.53;;;24.40;62.80;;;;;;5074519;28;20235;-70
2022/08/16 12:33:04;;;;;;;3.40;2.35;;;24.40;62.80;;;;;;5057639;28;20220;-71
2022/08/16 12:35:34;;;;;;;2.60;2.40;;;24.40;62.80;;;;;;5058015;28;20215;-70
2022/08/16 12:38:01;;;;;;;2.50;2.30;;;24.40;62.80;;;;;;5091212;28;20208;-70
2022/08/16 12:40:33;;;;;;;2.58;2.40;;;24.40;62.80;;;;;;5092570;28;20197;-71
2022/08/16 12:43:03;;;;;;;2.92;2.72;;;24.40;62.80;;;;;;5073632;28;20196;-71
2022/08/16 12:45:38;;;;;;;2.60;2.40;;;24.40;62.90;;;;;;5074257;28;20180;-71
2022/08/16 12:50:53;;;;;;;2.60;2.40;;;24.40;62.90;;;;;;5074219;28;20196;-71
2022/08/16 12:53:19;;;;;;;2.38;2.17;;;24.40;62.90;;;;;;5080480;28;20186;-71
2022/08/16 12:55:47;;;;;;;2.80;2.60;;;24.40;62.80;;;;;;5094346;28;20540;-71
2022/08/16 12:58:14;;;;;;;2.60;2.40;;;24.40;62.80;;;;;;5111483;28;20204;-71